Etusivu
METAR-TAF:

METAR-TAF

Lentoasemat :

Jefferson County International Airport

Port Townsend, Washington, Yhdysvallat

Leveyspiiri: 48-03-14N, Pituuspiiri: 122-48-38W, korkeus merenpinnasta: 33 m

Tämänhetkinen sää

Tämä raportti tehtiin 23 minuuttia sitten, kello 16.35 UTC
Tuuli 4 kn eri suunnista puuskistuen 11 kn:hen
Lämpötila 14°C
Kosteus 72%
Ilmanpaine 1007 hPa
Näkyvyys: 16.1 km
selkeää

METAR: K0S9 191635Z AUTO VRB04G11KT 10SM CLR 14/09 A2973 RMK AO2

Aika: 09:58 (16:58 UTC)


TAF: puuttuu

Säähavainnot ja -ennusteet yli 4000 lentoasemalta (METAR- ja TAF-raportit).

Käytössä olevat sääasemat on merkitty karttaan keltaisilla ja punaisilla pisteillä.

Aseta hiiri pisteen päälle nähdäksesi sääaseman nimen.

Klikkaa sitten nähdäksesi säähavainnot ja -ennusteet.

Kartan vaihtaminen: klikkaa mustalla rastilla varustettuja vihreitä pisteitä, niin voit zoomata sisään; viivalla varustettua vihreää pistettä, niin voit zoomata ulos tai vihreitä nuolia, niin pääset viereisille kartoille.


METAR-TAF: